ADDS METAR Data INFO
IDs: Format: Raw Decoded Include TAF

Data at: 0805 UTC 24 May 2018

KLXY 240755Z AUTO 00000KT 10SM CLR 20/19 A3005 RMK AO2 T01970186
KLXY 240735Z AUTO 00000KT 10SM CLR 20/19 A3006 RMK AO2 T02030190
KLXY 240715Z AUTO 00000KT 10SM CLR 20/19 A3006 RMK AO2 T02010188
KLXY 240655Z AUTO 15003KT 10SM CLR 20/19 A3006 RMK AO2 T02020187
KLXY 240635Z AUTO 15003KT 10SM CLR 21/19 A3007 RMK AO2 T02050188
KLXY 240615Z AUTO 00000KT 10SM CLR 21/19 A3007 RMK AO2 LTG DSNT N T02060190
KLXY 240555Z AUTO 00000KT A3008 RMK AO2 6//// PWINO
KLXY 240535Z AUTO 00000KT 10SM CLR 21/19 A3007 RMK AO2 T02050187
KLXY 240515Z AUTO 00000KT 10SM CLR 21/19 A3007 RMK AO2 T02100189
KLXY 240455Z AUTO 00000KT 10SM CLR 22/19 A3007 RMK AO2 T02150190
KLXY 240435Z AUTO 15004KT 10SM CLR 22/19 A3007 RMK AO2 T02150187
KLXY 240415Z AUTO 15005KT 10SM CLR 22/19 A3006 RMK AO2 T02180187
KLXY 240355Z AUTO 15004KT 10SM CLR 22/19 A3005 RMK AO2 T02200188
KLXY 240335Z AUTO 15004KT 10SM CLR 22/19 A3004 RMK AO2 T02210190
KLXY 240315Z AUTO 15005KT 10SM CLR 23/19 A3003 RMK AO2 T02260192
KLXY 240255Z AUTO 15005KT 10SM CLR 23/19 A3002 RMK AO2 T02290193
KLXY 240235Z AUTO 16007KT 10SM CLR 23/20 A3002 RMK AO2 T02320198
KLXY 240220Z AUTO 18007KT 10SM CLR 24/20 A3001 RMK AO2 T02350198
KLXY 240155Z AUTO 16007KT 10SM CLR 24/20 A3000 RMK AO2 T02390197
KLXY 240135Z AUTO 17004KT 10SM CLR 25/20 A2999 RMK AO2 T02460195
KLXY 240115Z AUTO 17006KT 10SM CLR 25/19 A2999 RMK AO2 T02530193
KLXY 240055Z AUTO 18009KT 10SM CLR 26/19 A2998 RMK AO2 T02610193
KLXY 240035Z AUTO 13005KT 10SM CLR 27/19 A2997 RMK AO2 T02660192
KLXY 240015Z AUTO 16005KT 10SM CLR 27/19 A2997 RMK AO2 T02670190
KLXY 232355Z AUTO 17007KT 10SM CLR 27/19 A2998 RMK AO2 T02690188 10314 20255
KLXY 232335Z AUTO 17007G17KT 10SM CLR 26/19 A2999 RMK AO2 T02620193
KLXY 232315Z AUTO 15014G28KT 10SM SCT050 SCT075 SCT120 26/19 A3000 RMK AO2 T02600188
KLXY 232255Z AUTO 13003KT 10SM SCT050 BKN120 29/19 A2999 RMK AO2 T02930191
KLXY 232235Z AUTO 00000KT 10SM SCT050 30/20 A2999 RMK AO2 T03000196
KLXY 232215Z AUTO 10005G14KT 10SM CLR 31/19 A2999 RMK AO2 T03110191
KLXY 232155Z AUTO 11007KT 090V150 10SM SCT060 SCT080 29/20 A2999 RMK AO2 LTG DSNT SE AND S T02940195
KLXY 232135Z AUTO 10004KT 10SM SCT045 SCT060 BKN080 31/20 A2999 RMK AO2 T03140204
KLXY 232115Z AUTO 12009G18KT 10SM CLR 31/19 A2999 RMK AO2 T03090190
KLXY 232055Z AUTO 11006KT 10SM SCT070 31/19 A3000 RMK AO2 LTG DSNT SE T03110194
KLXY 232035Z AUTO 12010G16KT 10SM SCT047 SCT070 31/20 A3001 RMK AO2 LTG DSNT SE T03080203
KLXY 232015Z AUTO 10007G15KT 10SM BKN045 BKN050 31/20 A3001 RMK AO2 T03050197
KLXY 231955Z AUTO 07005G14KT 10SM SCT047 31/20 A3002 RMK AO2 LTG DSNT NE T03130195
KLXY 231935Z AUTO 14005G16KT 10SM SCT045 SCT065 31/19 A3003 RMK AO2 T03100190
KLXY 231915Z AUTO 09007KT 10SM SCT045 SCT060 BKN065 30/19 A3004 RMK AO2 T03040193
KLXY 231855Z AUTO 10007G14KT 10SM SCT043 SCT060 31/19 A3004 RMK AO2 LTG DSNT SE T03050191
KLXY 231835Z AUTO 12006G14KT 10SM SCT038 SCT060 30/19 A3005 RMK AO2 T02990193
KLXY 231815Z AUTO 11006G14KT 10SM SCT039 SCT044 SCT049 30/20 A3005 RMK AO2 T02970195
KLXY 231755Z AUTO 13008KT 10SM SCT038 BKN046 30/20 A3006 RMK AO2 T02990197 10299 20195
KLXY 231735Z AUTO 15006KT 10SM SCT036 BKN046 29/20 A3006 RMK AO2 T02850200
KLXY 231715Z AUTO 14005KT 10SM SCT032 SCT039 29/20 A3007 RMK AO2 LTG DSNT SE T02880198
KLXY 231655Z AUTO 15006KT 10SM SCT032 BKN046 BKN050 28/20 A3008 RMK AO2 T02800204
KLXY 231635Z AUTO 16005KT 10SM SCT037 BKN046 27/20 A3008 RMK AO2 LTG DSNT S T02690200
KLXY 231615Z AUTO 18007KT 10SM SCT023 SCT030 BKN043 27/20 A3008 RMK AO2 LTG DSNT SE T02670203
KLXY 231555Z AUTO 20004KT 10SM SCT024 SCT032 26/20 A3008 RMK AO2 T02640203
KLXY 231535Z AUTO 17005KT 10SM SCT020 26/21 A3008 RMK AO2 T02640207
KLXY 231515Z AUTO 20004KT 10SM SCT014 SCT019 26/21 A3007 RMK AO2 T02620206
KLXY 231455Z AUTO 17006KT 10SM BKN012 BKN019 26/22 A3007 RMK AO2 T02560215
KLXY 231435Z AUTO 14004KT 10SM BKN010 25/21 A3008 RMK AO2 LTG DSNT SE T02460213
KLXY 231415Z AUTO 19004KT 10SM OVC008 24/22 A3007 RMK AO2 T02390216
KLXY 231355Z AUTO 18004KT 10SM BKN008 BKN012 24/21 A3007 RMK AO2 T02350211
KLXY 231335Z AUTO 18003KT 10SM SCT008 SCT013 23/21 A3007 RMK AO2 T02310211
KLXY 231315Z AUTO 00000KT 10SM SCT008 SCT015 22/21 A3006 RMK AO2 T02210205
KLXY 231255Z AUTO 00000KT 10SM CLR 22/20 A3005 RMK AO2 LTG DSNT SE T02150202
KLXY 231235Z AUTO 00000KT 10SM CLR 21/20 A3004 RMK AO2 T02070200
KLXY 231215Z AUTO 00000KT 10SM CLR 20/19 A3004 RMK AO2 T02000193
KLXY 231155Z AUTO 00000KT 5SM BR CLR 20/19 A3003 RMK AO2 T01960190 10220 20192
KLXY 231135Z AUTO 00000KT 4SM BR CLR 20/19 A3002 RMK AO2 T01950188
KLXY 231115Z AUTO 00000KT 10SM CLR 20/19 A3000 RMK AO2 T01980191
KLXY 231055Z AUTO 00000KT 10SM CLR 20/19 A2999 RMK AO2 T01980190
KLXY 231035Z AUTO 00000KT 10SM CLR 20/19 A2999 RMK AO2 T01990191
KLXY 231015Z AUTO 00000KT 10SM CLR 20/19 A2999 RMK AO2 T01970190
KLXY 230955Z AUTO 00000KT 10SM CLR 20/19 A2998 RMK AO2 T02000192
KLXY 230935Z AUTO 00000KT 10SM CLR 20/19 A2998 RMK AO2 T02010192
KLXY 230915Z AUTO 00000KT 10SM CLR 20/19 A2998 RMK AO2 T02010192
KLXY 230855Z AUTO 00000KT 10SM CLR 21/19 A2998 RMK AO2 T02050193
KLXY 230835Z AUTO 00000KT 10SM CLR 21/20 A2998 RMK AO2 T02080195
KLXY 230815Z AUTO 00000KT 10SM CLR 21/20 A2999 RMK AO2 T02100195
KLXY 230755Z AUTO 00000KT 10SM CLR 21/20 A2999 RMK AO2 T02100196
KLXY 230735Z AUTO 15003KT 10SM CLR 21/20 A2999 RMK AO2 T02110200
KLXY 230715Z AUTO 18006KT 10SM CLR 22/20 A2999 RMK AO2 T02150201
KLXY 230655Z AUTO 16003KT 10SM CLR 22/21 A2999 RMK AO2 T02180205
KLXY 230635Z AUTO 15003KT 10SM CLR 22/21 A2999 RMK AO2 T02190209
KLXY 230615Z AUTO 00000KT 10SM CLR 22/21 A2999 RMK AO2 T02180208
KLXY 230555Z AUTO 16003KT 10SM CLR 22/21 A2999 RMK AO2 T02180209 10279 20217 403060185
KLXY 230535Z AUTO 00000KT 10SM CLR 22/21 A2999 RMK AO2 T02210208
KLXY 230515Z AUTO 12005KT 10SM CLR 22/21 A2999 RMK AO2 T02210207
KLXY 230455Z AUTO 00000KT 10SM CLR 23/21 A2999 RMK AO2 T02260211
KLXY 230435Z AUTO 17004KT 10SM CLR 23/21 A2999 RMK AO2 T02250210
KLXY 230415Z AUTO 18006KT 10SM CLR 23/21 A2999 RMK AO2 T02300210
KLXY 230355Z AUTO 19006KT 10SM CLR 23/21 A2999 RMK AO2 T02320212
KLXY 230335Z AUTO 18004KT 10SM CLR 24/21 A2999 RMK AO2 T02350213
KLXY 230315Z AUTO 15004KT 10SM CLR 23/21 A2998 RMK AO2 T02330212
KLXY 230300Z AUTO 00000KT 10SM CLR 24/21 A2997 RMK AO2 T02400210
KLXY 230235Z AUTO 00000KT 10SM CLR 25/21 A2996 RMK AO2 LTG DSNT E T02450210
KLXY 230215Z AUTO 11004KT 10SM CLR 25/21 A2995 RMK AO2 T02470209
KLXY 230155Z AUTO 11003KT 10SM CLR 25/21 A2995 RMK AO2 T02500211
KLXY 230135Z AUTO 10007KT 10SM CLR 26/21 A2995 RMK AO2 T02550210
KLXY 230115Z AUTO 11008KT 10SM CLR 26/21 A2994 RMK AO2 T02590212
KLXY 230055Z AUTO 10008KT 10SM CLR 27/22 A2994 RMK AO2 T02660217
KLXY 230035Z AUTO 10006KT 10SM CLR 27/21 A2994 RMK AO2 T02700214
KLXY 230015Z AUTO 12007KT 100V180 10SM CLR 28/21 A2994 RMK AO2 LTG DSNT N T02760208
KLXY 222355Z AUTO 12007KT 10SM SCT043 SCT050 SCT075 28/20 A2994 RMK AO2 T02760200 10306 20270
KLXY 222335Z AUTO 14007KT 10SM BKN041 OVC050 27/21 A2994 RMK AO2 T02730208
KLXY 222315Z AUTO 11007G15KT 10SM SCT043 30/20 A2993 RMK AO2 T03010200
KLXY 222255Z AUTO 12003G14KT 10SM CLR 30/19 A2993 RMK AO2 T02960190
KLXY 222235Z AUTO 10004G14KT 10SM CLR 30/19 A2993 RMK AO2 T02990191
KLXY 222215Z AUTO 13007G14KT 100V180 10SM CLR 30/19 A2994 RMK AO2 T03000194
KLXY 222155Z AUTO 18011KT 10SM SCT038 SCT047 SCT120 30/20 A2994 RMK AO2 LTG DSNT N T03010196
KLXY 222135Z AUTO 14010G15KT 10SM BKN040 BKN048 BKN070 30/21 A2994 RMK AO2 T03030205
KLXY 222115Z AUTO 15005G16KT 10SM SCT042 SCT050 SCT070 30/20 A2995 RMK AO2 LTG DSNT SE T03020195
KLXY 222055Z AUTO 19008KT 10SM SCT040 SCT046 SCT070 29/19 A2995 RMK AO2 T02930194
KLXY 222035Z AUTO 11005KT 10SM BKN042 BKN050 OVC070 29/20 A2996 RMK AO2 T02900195
KLXY 222015Z AUTO 10005KT 10SM SCT043 BKN050 BKN075 29/20 A2997 RMK AO2 T02880196